Betancuria — EAMH — position and weather

sailwx.info

Track history (hours):
 
Tides and Currents Weather Stations Pressure Air Temp Water Temp Dewpoint Dewpoint Depression Visibility Wind Speed Wind Dir Waves Ship Positions

Betancuria

Last reported at 2015-Feb-26 16:33 UTC. Time now 2015-Feb-28 00:43 UTC.
Position N 50°36' E 000°23'.

Length 141 m; draft 4.7 m.

Type: Ship. MMSI: 224471000.

Date/timePositionNaut miles runAvg speedWind from/ knotsBaromVisibWave heightAir tempDewpointWater temp
2015-Feb-26 16:33N 50°36' E 000°23'9 8.7
2015-Feb-26 15:33N 50°39' E 000°35'8 8.5
2015-Feb-26 14:33N 50°44' E 000°46'9 8.7
2015-Feb-26 13:33N 50°49' E 000°58'10 9.7
2015-Feb-26 12:32N 50°56' E 001°10'1110.7
2015-Feb-26 11:31N 51°02' E 001°23'1010.7
2015-Feb-26 10:33N 51°09' E 001°36'9 9.3
2015-Feb-26 09:33N 51°18' E 001°41'9 9.0
2015-Feb-26 08:34N 51°26' E 001°46'9 8.9
2015-Feb-26 07:33N 51°35' E 001°46'9 9.1
2015-Feb-26 06:33N 51°44' E 001°45'10 9.5
2015-Feb-26 05:33N 51°54' E 001°45'1010.2
2015-Feb-26 04:33N 52°04' E 001°48'1111.2
2015-Feb-26 03:33N 52°15' E 001°51'1212.0
2015-Feb-26 02:33N 52°26' E 001°55'1312.7
2015-Feb-26 01:33N 52°39' E 001°56'1211.5
2015-Feb-26 00:33N 52°49' E 001°47'1312.7
2015-Feb-25 23:33N 52°59' E 001°33'1211.9
2015-Feb-25 22:33N 53°08' E 001°21'4911.0
2015-Feb-25 18:05N 53°52' E 000°44'510.5
2015-Feb-25 17:34N 53°58' E 000°42'1010.3
2015-Feb-25 16:33N 54°07' E 000°34'1010.2
2015-Feb-25 15:33N 54°16' E 000°27'1010.1
2015-Feb-25 14:33N 54°25' E 000°19'1010.3
2015-Feb-25 13:33N 54°34' E 000°11'1110.5
2015-Feb-25 12:33N 54°44' E 000°04'1110.9
2015-Feb-25 11:31N 54°54' W 000°05'15010.7
2015-Feb-24 21:34N 57°09' W 002°04'1 0.5
2015-Feb-24 20:22N 57°09' W 002°05'0 0.0
2015-Feb-24 19:31N 57°09' W 002°05'0 0.0
2015-Feb-24 18:31N 57°09' W 002°05'0 0.0
2015-Feb-24 17:31N 57°09' W 002°05'0 0.0
2015-Feb-24 16:31N 57°09' W 002°05'0 0.0
2015-Feb-24 15:31N 57°09' W 002°05'0 0.0
2015-Feb-24 14:31N 57°09' W 002°05'0 0.0
2015-Feb-24 13:31N 57°09' W 002°05'0 0.0
2015-Feb-24 12:31N 57°09' W 002°05'0 0.0
2015-Feb-24 11:16N 57°09' W 002°05'0 0.0
2015-Feb-24 10:28N 57°09' W 002°05'0 0.0
2015-Feb-24 09:31N 57°09' W 002°05'0 0.0
2015-Feb-24 08:31N 57°09' W 002°05'0 0.0
2015-Feb-24 07:31N 57°09' W 002°05'0 0.0
2015-Feb-24 06:31N 57°09' W 002°05'0 0.0
2015-Feb-24 05:31N 57°09' W 002°05'0 0.0
2015-Feb-24 04:19N 57°09' W 002°05'0 0.0
2015-Feb-24 03:31N 57°09' W 002°05'0 0.0
2015-Feb-24 01:31N 57°09' W 002°05'0 0.0
2015-Feb-23 21:25N 57°09' W 002°05'0 0.0
2015-Feb-23 20:31N 57°09' W 002°05'0 0.0
2015-Feb-23 18:31N 57°09' W 002°05'0 0.0
2015-Feb-23 17:31N 57°09' W 002°05'0 0.0
2015-Feb-23 16:31N 57°09' W 002°05'0 0.0
2015-Feb-23 15:31N 57°09' W 002°05'0 0.0
2015-Feb-23 14:19N 57°09' W 002°05'0 0.0
2015-Feb-23 13:31N 57°09' W 002°05'0 0.0
2015-Feb-23 12:31N 57°09' W 002°05'0 0.0
2015-Feb-23 11:31N 57°09' W 002°05'0 0.0
2015-Feb-23 10:31N 57°09' W 002°05'0 0.0
2015-Feb-23 09:28N 57°09' W 002°05'0 0.0
2015-Feb-23 08:31N 57°09' W 002°05'0 0.0
2015-Feb-23 07:25N 57°09' W 002°05'0 0.0
2015-Feb-23 06:31N 57°09' W 002°05'0 0.0
2015-Feb-23 05:31N 57°09' W 002°05'0 0.0
2015-Feb-23 04:31N 57°09' W 002°05'0 0.0
2015-Feb-23 03:31N 57°09' W 002°05'0 0.0
2015-Feb-23 02:31N 57°09' W 002°05'0 0.0
2015-Feb-23 01:31N 57°09' W 002°05'0 0.0
2015-Feb-23 00:28N 57°09' W 002°05'0 0.0
2015-Feb-22 23:31N 57°09' W 002°05'0 0.0
2015-Feb-22 22:31N 57°09' W 002°05'0 0.0
2015-Feb-22 21:31N 57°09' W 002°05'0 0.0
2015-Feb-22 20:31N 57°09' W 002°05'0 0.0
2015-Feb-22 19:31N 57°09' W 002°05'0 0.0
2015-Feb-22 18:31N 57°09' W 002°05'0 0.0
2015-Feb-22 17:31N 57°09' W 002°05'0 0.0
2015-Feb-22 16:31N 57°09' W 002°05'0 0.0
2015-Feb-22 15:31N 57°09' W 002°05'148 3.2
2015-Feb-20 17:31N 54°56' W 000°06'9 9.8
2015-Feb-20 16:33N 54°48' E 000°01'10 9.7
2015-Feb-20 15:33N 54°39' E 000°08'1010.3
2015-Feb-20 14:34N 54°30' E 000°16'1111.1
2015-Feb-20 13:33N 54°20' E 000°24'1212.1
2015-Feb-20 12:33N 54°09' E 000°33'1312.8
2015-Feb-20 11:33N 53°57' E 000°41'1313.2
2015-Feb-20 10:33N 53°44' E 000°49'3210.7
2015-Feb-20 07:32N 53°15' E 001°13'9 9.0
2015-Feb-20 06:33N 53°08' E 001°21'10 9.8
2015-Feb-20 05:33N 53°00' E 001°31'1111.4
2015-Feb-20 04:33N 52°51' E 001°43'1312.6
2015-Feb-20 03:34N 52°41' E 001°56'1514.7
2015-Feb-20 02:34N 52°27' E 001°56'1413.8
2015-Feb-20 01:33N 52°13' E 001°54'1313.2
2015-Feb-20 00:33N 52°00' E 001°50'1111.3
2015-Feb-19 23:33N 51°49' E 001°48'1010.3
2015-Feb-19 22:33N 51°39' E 001°49'1010.1
2015-Feb-19 21:34N 51°30' E 001°56'9 8.5
2015-Feb-19 20:33N 51°21' E 001°59'9 8.8
2015-Feb-19 19:34N 51°14' E 001°51'9 9.0
2015-Feb-19 18:33N 51°07' E 001°41'10 9.7
2015-Feb-19 17:33N 51°00' E 001°32'1010.3
2015-Feb-19 16:33N 50°51' E 001°24'  
Track history (hours):
 
Tides and Currents Weather Stations Pressure Air Temp Water Temp Dewpoint Dewpoint Depression Visibility Wind Speed Wind Dir Waves Ship Positions

Betancuria

Last reported at 2015-Feb-26 16:33 UTC. Time now 2015-Feb-28 00:43 UTC.
Position N 50°36' E 000°23'.

Length 141 m; draft 4.7 m.

Type: Ship. MMSI: 224471000.

Date/timePositionNaut miles runAvg speedWind from/ knotsBaromVisibWave heightAir tempDewpointWater temp
2015-Feb-26 16:33N 50°36' E 000°23'9 8.7
2015-Feb-26 15:33N 50°39' E 000°35'8 8.5
2015-Feb-26 14:33N 50°44' E 000°46'9 8.7
2015-Feb-26 13:33N 50°49' E 000°58'10 9.7
2015-Feb-26 12:32N 50°56' E 001°10'1110.7
2015-Feb-26 11:31N 51°02' E 001°23'1010.7
2015-Feb-26 10:33N 51°09' E 001°36'9 9.3
2015-Feb-26 09:33N 51°18' E 001°41'9 9.0
2015-Feb-26 08:34N 51°26' E 001°46'9 8.9
2015-Feb-26 07:33N 51°35' E 001°46'9 9.1
2015-Feb-26 06:33N 51°44' E 001°45'10 9.5
2015-Feb-26 05:33N 51°54' E 001°45'1010.2
2015-Feb-26 04:33N 52°04' E 001°48'1111.2
2015-Feb-26 03:33N 52°15' E 001°51'1212.0
2015-Feb-26 02:33N 52°26' E 001°55'1312.7
2015-Feb-26 01:33N 52°39' E 001°56'1211.5
2015-Feb-26 00:33N 52°49' E 001°47'1312.7
2015-Feb-25 23:33N 52°59' E 001°33'1211.9
2015-Feb-25 22:33N 53°08' E 001°21'4911.0
2015-Feb-25 18:05N 53°52' E 000°44'510.5
2015-Feb-25 17:34N 53°58' E 000°42'1010.3
2015-Feb-25 16:33N 54°07' E 000°34'1010.2
2015-Feb-25 15:33N 54°16' E 000°27'1010.1
2015-Feb-25 14:33N 54°25' E 000°19'1010.3
2015-Feb-25 13:33N 54°34' E 000°11'1110.5
2015-Feb-25 12:33N 54°44' E 000°04'1110.9
2015-Feb-25 11:31N 54°54' W 000°05'15010.7
2015-Feb-24 21:34N 57°09' W 002°04'1 0.5
2015-Feb-24 20:22N 57°09' W 002°05'0 0.0
2015-Feb-24 19:31N 57°09' W 002°05'0 0.0
2015-Feb-24 18:31N 57°09' W 002°05'0 0.0
2015-Feb-24 17:31N 57°09' W 002°05'0 0.0
2015-Feb-24 16:31N 57°09' W 002°05'0 0.0
2015-Feb-24 15:31N 57°09' W 002°05'0 0.0
2015-Feb-24 14:31N 57°09' W 002°05'0 0.0
2015-Feb-24 13:31N 57°09' W 002°05'0 0.0
2015-Feb-24 12:31N 57°09' W 002°05'0 0.0
2015-Feb-24 11:16N 57°09' W 002°05'0 0.0
2015-Feb-24 10:28N 57°09' W 002°05'0 0.0
2015-Feb-24 09:31N 57°09' W 002°05'0 0.0
2015-Feb-24 08:31N 57°09' W 002°05'0 0.0
2015-Feb-24 07:31N 57°09' W 002°05'0 0.0
2015-Feb-24 06:31N 57°09' W 002°05'0 0.0
2015-Feb-24 05:31N 57°09' W 002°05'0 0.0
2015-Feb-24 04:19N 57°09' W 002°05'0 0.0
2015-Feb-24 03:31N 57°09' W 002°05'0 0.0
2015-Feb-24 01:31N 57°09' W 002°05'0 0.0
2015-Feb-23 21:25N 57°09' W 002°05'0 0.0
2015-Feb-23 20:31N 57°09' W 002°05'0 0.0
2015-Feb-23 18:31N 57°09' W 002°05'0 0.0
2015-Feb-23 17:31N 57°09' W 002°05'0 0.0
2015-Feb-23 16:31N 57°09' W 002°05'0 0.0
2015-Feb-23 15:31N 57°09' W 002°05'0 0.0
2015-Feb-23 14:19N 57°09' W 002°05'0 0.0
2015-Feb-23 13:31N 57°09' W 002°05'0 0.0
2015-Feb-23 12:31N 57°09' W 002°05'0 0.0
2015-Feb-23 11:31N 57°09' W 002°05'0 0.0
2015-Feb-23 10:31N 57°09' W 002°05'0 0.0
2015-Feb-23 09:28N 57°09' W 002°05'0 0.0
2015-Feb-23 08:31N 57°09' W 002°05'0 0.0
2015-Feb-23 07:25N 57°09' W 002°05'0 0.0
2015-Feb-23 06:31N 57°09' W 002°05'0 0.0
2015-Feb-23 05:31N 57°09' W 002°05'0 0.0
2015-Feb-23 04:31N 57°09' W 002°05'0 0.0
2015-Feb-23 03:31N 57°09' W 002°05'0 0.0
2015-Feb-23 02:31N 57°09' W 002°05'0 0.0
2015-Feb-23 01:31N 57°09' W 002°05'0 0.0
2015-Feb-23 00:28N 57°09' W 002°05'0 0.0
2015-Feb-22 23:31N 57°09' W 002°05'0 0.0
2015-Feb-22 22:31N 57°09' W 002°05'0 0.0
2015-Feb-22 21:31N 57°09' W 002°05'0 0.0
2015-Feb-22 20:31N 57°09' W 002°05'0 0.0
2015-Feb-22 19:31N 57°09' W 002°05'0 0.0
2015-Feb-22 18:31N 57°09' W 002°05'0 0.0
2015-Feb-22 17:31N 57°09' W 002°05'0 0.0
2015-Feb-22 16:31N 57°09' W 002°05'0 0.0
2015-Feb-22 15:31N 57°09' W 002°05'148 3.2
2015-Feb-20 17:31N 54°56' W 000°06'9 9.8
2015-Feb-20 16:33N 54°48' E 000°01'10 9.7
2015-Feb-20 15:33N 54°39' E 000°08'1010.3
2015-Feb-20 14:34N 54°30' E 000°16'1111.1
2015-Feb-20 13:33N 54°20' E 000°24'1212.1
2015-Feb-20 12:33N 54°09' E 000°33'1312.8
2015-Feb-20 11:33N 53°57' E 000°41'1313.2
2015-Feb-20 10:33N 53°44' E 000°49'3210.7
2015-Feb-20 07:32N 53°15' E 001°13'9 9.0
2015-Feb-20 06:33N 53°08' E 001°21'10 9.8
2015-Feb-20 05:33N 53°00' E 001°31'1111.4
2015-Feb-20 04:33N 52°51' E 001°43'1312.6
2015-Feb-20 03:34N 52°41' E 001°56'1514.7
2015-Feb-20 02:34N 52°27' E 001°56'1413.8
2015-Feb-20 01:33N 52°13' E 001°54'1313.2
2015-Feb-20 00:33N 52°00' E 001°50'1111.3
2015-Feb-19 23:33N 51°49' E 001°48'1010.3
2015-Feb-19 22:33N 51°39' E 001°49'1010.1
2015-Feb-19 21:34N 51°30' E 001°56'9 8.5
2015-Feb-19 20:33N 51°21' E 001°59'9 8.8
2015-Feb-19 19:34N 51°14' E 001°51'9 9.0
2015-Feb-19 18:33N 51°07' E 001°41'10 9.7
2015-Feb-19 17:33N 51°00' E 001°32'1010.3
2015-Feb-19 16:33N 50°51' E 001°24'  

Dump ship's entire track history